Time;durP1;ratioP1;P1;durP2;ratioP2;P2;SDS_P1;SDS_P2;PMS_P1;PMS_P2;Temp;Humidity;BMP_temperature;BMP_pressure;BME280_temperature;BME280_humidity;BME280_pressure;Samples;Min_cycle;Max_cycle;Signal;HPM_P1;HPM_P2
2022/07/14 00:02:18;;;;;;;7.68;2.97;;;14.00;99.90;;;;;;5062328;28;20101;-84
2022/07/14 00:04:44;;;;;;;8.25;2.88;;;14.00;99.90;;;;;;5078342;28;20044;-85
2022/07/14 00:07:10;;;;;;;13.63;3.35;;;14.00;99.90;;;;;;5061371;28;20113;-84
2022/07/14 00:09:36;;;;;;;10.10;2.78;;;14.00;99.90;;;;;;5080887;28;20156;-84
2022/07/14 00:12:03;;;;;;;18.73;3.10;;;13.90;99.90;;;;;;5076127;28;20073;-85
2022/07/14 00:14:29;;;;;;;10.77;3.38;;;13.90;99.90;;;;;;5058196;28;20040;-84
2022/07/14 00:16:55;;;;;;;7.28;2.80;;;13.80;99.90;;;;;;5088269;28;20046;-84
2022/07/14 00:19:21;;;;;;;9.38;3.03;;;13.80;99.90;;;;;;5081948;28;20044;-84
2022/07/14 00:21:49;;;;;;;7.80;2.50;;;13.80;99.90;;;;;;5072524;28;20029;-84
2022/07/14 00:24:14;;;;;;;7.13;3.22;;;13.70;99.90;;;;;;5067731;28;20120;-84
2022/07/14 00:26:40;;;;;;;10.13;3.22;;;13.70;99.90;;;;;;5051226;28;20250;-84
2022/07/14 00:29:07;;;;;;;12.50;3.03;;;13.70;99.90;;;;;;5062718;28;20066;-84
2022/07/14 00:31:35;;;;;;;9.15;3.05;;;13.60;99.90;;;;;;5068394;28;20075;-84
2022/07/14 00:34:01;;;;;;;5.80;2.58;;;13.50;99.90;;;;;;5073466;28;20036;-84
2022/07/14 00:36:27;;;;;;;10.13;3.15;;;13.50;99.90;;;;;;5053232;28;20086;-84
2022/07/14 00:38:54;;;;;;;8.57;2.75;;;13.50;99.90;;;;;;5083013;28;20081;-85
2022/07/14 00:41:20;;;;;;;9.38;2.97;;;13.40;99.90;;;;;;5088537;28;20519;-85
2022/07/14 00:43:46;;;;;;;8.82;2.97;;;13.40;99.90;;;;;;5063186;28;20114;-85
2022/07/14 00:46:12;;;;;;;9.40;3.25;;;13.40;99.90;;;;;;5065513;28;20035;-84
2022/07/14 00:48:38;;;;;;;11.30;2.85;;;13.40;99.90;;;;;;5044841;28;20447;-84
2022/07/14 00:51:03;;;;;;;8.15;3.00;;;13.40;99.90;;;;;;5078744;28;20504;-84
2022/07/14 00:53:29;;;;;;;11.45;3.53;;;13.40;99.90;;;;;;5058843;28;20123;-85
2022/07/14 00:55:56;;;;;;;10.95;3.33;;;13.40;99.90;;;;;;5074491;28;20036;-85
2022/07/14 00:58:22;;;;;;;8.73;3.20;;;13.30;99.90;;;;;;5078257;28;20365;-85
2022/07/14 01:00:50;;;;;;;12.52;2.95;;;13.30;99.90;;;;;;5063183;28;20059;-85
2022/07/14 01:03:16;;;;;;;13.25;3.45;;;13.20;99.90;;;;;;5077362;28;20083;-84
2022/07/14 01:05:42;;;;;;;12.70;3.85;;;13.10;99.90;;;;;;5062668;28;20070;-83
2022/07/14 01:08:10;;;;;;;13.98;3.30;;;13.20;99.90;;;;;;5049796;28;20468;-84
2022/07/14 01:10:36;;;;;;;12.60;3.03;;;13.10;99.90;;;;;;5076097;28;20052;-84
2022/07/14 01:13:06;;;;;;;9.95;3.42;;;13.10;99.90;;;;;;5057027;28;20033;-84
2022/07/14 01:15:32;;;;;;;12.65;3.65;;;13.10;99.90;;;;;;5071909;28;20028;-85
2022/07/14 01:17:58;;;;;;;9.63;3.53;;;13.10;99.90;;;;;;5073125;28;20396;-85
2022/07/14 01:20:24;;;;;;;9.90;4.03;;;13.10;99.90;;;;;;5070108;28;20045;-85
2022/07/14 01:22:51;;;;;;;14.25;3.22;;;13.00;99.90;;;;;;5060592;28;20055;-84
2022/07/14 01:25:20;;;;;;;11.18;3.75;;;13.00;99.90;;;;;;5073127;28;20492;-84
2022/07/14 01:27:46;;;;;;;9.77;3.40;;;12.90;99.90;;;;;;5072294;28;20449;-85
2022/07/14 01:30:13;;;;;;;9.25;2.92;;;12.90;99.90;;;;;;5052485;28;20504;-86
2022/07/14 01:32:41;;;;;;;11.05;3.15;;;12.90;99.90;;;;;;5086720;28;20091;-85
2022/07/14 01:35:08;;;;;;;11.55;3.10;;;12.90;99.90;;;;;;5088974;28;20043;-85
2022/07/14 01:37:34;;;;;;;10.52;3.25;;;12.90;99.90;;;;;;5063914;28;20258;-84
2022/07/14 01:40:01;;;;;;;7.63;3.20;;;12.90;99.90;;;;;;5054928;28;20045;-85
2022/07/14 01:42:26;;;;;;;12.65;4.55;;;12.80;99.90;;;;;;5069834;28;20519;-85
2022/07/14 01:44:52;;;;;;;11.93;3.92;;;12.80;99.90;;;;;;5068071;28;20040;-85
2022/07/14 01:47:18;;;;;;;11.00;3.90;;;12.70;99.90;;;;;;5052437;28;20055;-84
2022/07/14 01:49:44;;;;;;;13.25;4.18;;;12.60;99.90;;;;;;5089975;28;20107;-84
2022/07/14 01:52:09;;;;;;;8.98;3.80;;;12.60;99.90;;;;;;5062894;28;20044;-84
2022/07/14 01:54:38;;;;;;;11.18;3.88;;;12.60;99.90;;;;;;5056891;28;20482;-83
2022/07/14 01:57:06;;;;;;;12.88;3.67;;;12.60;99.90;;;;;;5100911;28;20060;-83
2022/07/14 01:59:32;;;;;;;12.32;3.70;;;12.60;99.90;;;;;;5056376;28;20044;-84
2022/07/14 02:01:58;;;;;;;10.98;3.50;;;12.60;99.90;;;;;;5086254;28;20040;-83
2022/07/14 02:04:24;;;;;;;12.13;3.70;;;12.60;99.90;;;;;;5073145;28;20039;-83
2022/07/14 02:06:52;;;;;;;8.70;3.80;;;12.60;99.90;;;;;;5068645;28;20028;-83
2022/07/14 02:09:22;;;;;;;10.85;4.05;;;12.60;99.90;;;;;;5061208;28;20366;-83
2022/07/14 02:14:33;;;;;;;14.07;4.53;;;12.60;99.90;;;;;;5082428;28;20037;-83
2022/07/14 02:16:59;;;;;;;8.98;4.13;;;12.60;99.90;;;;;;5065087;28;20354;-84
2022/07/14 02:19:25;;;;;;;11.40;3.72;;;12.60;99.90;;;;;;5061571;28;20036;-83
2022/07/14 02:21:53;;;;;;;12.70;3.60;;;12.60;99.90;;;;;;5066404;28;20032;-83
2022/07/14 02:24:20;;;;;;;10.52;4.35;;;12.60;99.90;;;;;;5065186;28;20116;-84
2022/07/14 02:26:46;;;;;;;14.32;3.80;;;12.50;99.90;;;;;;5077449;28;20528;-84
2022/07/14 02:29:14;;;;;;;11.93;3.88;;;12.50;99.90;;;;;;5064988;28;20447;-83
2022/07/14 02:31:42;;;;;;;13.50;3.92;;;12.50;99.90;;;;;;5063469;28;20048;-83
2022/07/14 02:34:08;;;;;;;9.70;3.50;;;12.50;99.90;;;;;;5061923;28;20037;-83
2022/07/14 02:36:34;;;;;;;11.30;4.05;;;12.50;99.90;;;;;;5063099;28;20055;-84
2022/07/14 02:38:59;;;;;;;11.95;3.78;;;12.50;99.90;;;;;;5070212;28;20032;-83
2022/07/14 02:41:25;;;;;;;10.63;3.47;;;12.50;99.90;;;;;;5061337;28;20434;-84
2022/07/14 02:43:51;;;;;;;15.25;4.28;;;12.50;99.90;;;;;;5078593;28;20562;-82
2022/07/14 02:46:17;;;;;;;10.02;3.90;;;12.40;99.90;;;;;;5061683;28;20032;-83
2022/07/14 02:48:45;;;;;;;10.32;3.60;;;12.40;99.90;;;;;;5061776;28;20043;-83
2022/07/14 02:51:11;;;;;;;12.88;4.15;;;12.40;99.90;;;;;;5056462;28;20044;-83
2022/07/14 02:53:37;;;;;;;17.02;5.13;;;12.40;99.90;;;;;;5059122;28;20486;-83
2022/07/14 02:56:05;;;;;;;11.00;3.72;;;12.30;99.90;;;;;;5085405;28;20107;-83
2022/07/14 02:58:30;;;;;;;14.07;4.28;;;12.30;99.90;;;;;;5078617;28;20028;-82
2022/07/14 03:00:56;;;;;;;17.75;4.60;;;11.80;99.90;;;;;;5061516;28;20512;-83
2022/07/14 03:03:23;;;;;;;10.93;4.55;;;12.20;99.90;;;;;;5070005;28;20051;-83
2022/07/14 03:05:49;;;;;;;14.00;4.03;;;12.20;99.90;;;;;;5073294;28;20050;-83
2022/07/14 03:08:15;;;;;;;10.32;3.60;;;12.20;99.90;;;;;;5070547;28;20119;-83
2022/07/14 03:10:42;;;;;;;15.93;4.78;;;12.20;99.90;;;;;;5062908;28;20182;-83
2022/07/14 03:13:08;;;;;;;10.88;4.65;;;12.20;99.90;;;;;;5058020;28;20051;-83
2022/07/14 03:15:34;;;;;;;12.40;4.13;;;12.20;99.90;;;;;;5060872;28;20039;-83
2022/07/14 03:18:01;;;;;;;14.43;5.47;;;12.10;99.90;;;;;;5057171;28;20083;-83
2022/07/14 03:20:27;;;;;;;12.95;4.45;;;12.10;99.90;;;;;;5064091;28;20085;-83
2022/07/14 03:22:53;;;;;;;16.10;5.32;;;12.10;99.90;;;;;;5090415;28;20077;-83
2022/07/14 03:25:20;;;;;;;14.13;4.50;;;12.10;99.90;;;;;;5059413;28;20071;-82
2022/07/14 03:27:46;;;;;;;16.77;4.90;;;12.10;99.90;;;;;;5080166;28;20158;-83
2022/07/14 03:30:14;;;;;;;14.38;5.20;;;12.10;99.90;;;;;;5052830;28;20517;-83
2022/07/14 03:32:40;;;;;;;16.58;4.53;;;12.00;99.90;;;;;;5061282;28;20048;-82
2022/07/14 03:35:07;;;;;;;10.73;4.50;;;12.00;99.90;;;;;;5070554;28;20055;-83
2022/07/14 03:37:35;;;;;;;13.23;4.85;;;12.00;99.90;;;;;;5090283;28;20048;-83
2022/07/14 03:40:05;;;;;;;8.80;4.35;;;12.00;99.90;;;;;;5066095;28;20097;-82
2022/07/14 03:42:31;;;;;;;13.40;4.78;;;12.00;99.90;;;;;;5059844;28;20508;-83
2022/07/14 03:44:59;;;;;;;12.70;4.63;;;12.00;99.90;;;;;;5052887;28;20044;-82
2022/07/14 03:47:28;;;;;;;12.25;4.28;;;12.00;99.90;;;;;;5057058;28;20126;-82
2022/07/14 03:49:54;;;;;;;8.15;4.50;;;11.90;99.90;;;;;;5088911;28;20071;-82
2022/07/14 03:52:19;;;;;;;10.73;4.47;;;12.00;99.90;;;;;;5040609;28;20082;-82
2022/07/14 03:54:46;;;;;;;13.90;5.05;;;11.90;99.90;;;;;;5060600;28;20143;-82
2022/07/14 03:57:12;;;;;;;11.77;4.22;;;11.90;99.90;;;;;;5069415;28;20119;-82
2022/07/14 03:59:40;;;;;;;10.48;4.50;;;12.00;99.90;;;;;;5039637;28;20042;-82
2022/07/14 04:02:11;;;;;;;10.23;4.22;;;12.00;99.90;;;;;;5069069;28;20090;-83
2022/07/14 04:04:37;;;;;;;10.05;4.57;;;12.00;99.90;;;;;;5064870;28;20040;-82
2022/07/14 04:07:04;;;;;;;15.13;4.70;;;12.00;99.90;;;;;;5072734;28;20039;-82
2022/07/14 04:09:30;;;;;;;14.57;5.15;;;12.00;99.90;;;;;;5065594;28;20032;-83
2022/07/14 04:11:56;;;;;;;12.70;4.40;;;12.00;99.90;;;;;;5071932;28;20043;-82
2022/07/14 04:14:22;;;;;;;13.27;4.85;;;12.00;99.90;;;;;;5076218;28;20542;-81
2022/07/14 04:16:48;;;;;;;10.45;4.43;;;12.00;99.90;;;;;;5077937;28;20044;-81
2022/07/14 04:19:14;;;;;;;13.48;5.35;;;12.00;99.90;;;;;;5049429;28;20066;-81
2022/07/14 04:21:42;;;;;;;8.88;4.80;;;12.00;99.90;;;;;;5057695;28;20032;-80
2022/07/14 04:24:07;;;;;;;10.57;4.45;;;12.10;99.90;;;;;;5064252;28;20044;-81
2022/07/14 04:26:37;;;;;;;11.23;4.03;;;12.10;99.90;;;;;;5053516;28;20141;-80
2022/07/14 04:29:06;;;;;;;15.55;5.03;;;12.10;99.90;;;;;;5066939;28;20505;-82
2022/07/14 04:31:33;;;;;;;10.90;4.20;;;12.20;99.90;;;;;;5078131;28;20041;-82
2022/07/14 04:33:59;;;;;;;11.75;4.28;;;12.20;99.90;;;;;;5078713;28;20051;-81
2022/07/14 04:36:25;;;;;;;12.63;4.68;;;12.20;99.90;;;;;;5069948;28;20039;-81
2022/07/14 04:38:51;;;;;;;13.90;4.80;;;12.20;99.90;;;;;;5064053;28;20119;-82
2022/07/14 04:41:17;;;;;;;16.23;4.55;;;12.20;99.90;;;;;;5090440;28;20027;-81
2022/07/14 04:43:43;;;;;;;12.80;5.28;;;12.20;99.90;;;;;;5098249;28;20118;-82
2022/07/14 04:46:09;;;;;;;11.98;4.57;;;12.30;99.90;;;;;;5067040;28;20059;-82
2022/07/14 04:52:01;;;;;;;11.75;4.53;;;12.30;99.90;;;;;;5063847;28;20413;-81
2022/07/14 04:54:05;;;;;;;13.65;5.63;;;12.30;99.90;;;;;;5079539;28;20092;-82
2022/07/14 04:56:31;;;;;;;11.60;5.07;;;12.40;99.90;;;;;;5045900;28;20458;-82
2022/07/14 04:58:57;;;;;;;9.43;4.90;;;12.40;99.90;;;;;;5061911;28;20033;-83
2022/07/14 05:01:23;;;;;;;13.98;5.05;;;12.50;99.90;;;;;;5058171;28;20288;-82
2022/07/14 05:03:49;;;;;;;13.80;5.15;;;12.50;99.90;;;;;;5094900;28;20529;-82
2022/07/14 05:06:16;;;;;;;9.73;4.35;;;12.60;99.90;;;;;;5067506;28;20352;-82
2022/07/14 05:08:42;;;;;;;12.40;5.00;;;12.60;99.90;;;;;;5063434;28;20032;-81
2022/07/14 05:11:08;;;;;;;12.73;4.45;;;12.60;99.90;;;;;;5083716;28;20420;-81
2022/07/14 05:13:34;;;;;;;10.68;4.47;;;12.60;99.90;;;;;;5079875;28;20040;-81
2022/07/14 05:15:59;;;;;;;8.63;4.78;;;12.70;99.90;;;;;;5067693;28;20043;-81
2022/07/14 05:18:25;;;;;;;12.60;4.50;;;12.70;99.90;;;;;;5066411;28;20390;-81
2022/07/14 05:20:51;;;;;;;16.25;4.70;;;12.80;99.90;;;;;;5063877;28;20115;-81
2022/07/14 05:23:17;;;;;;;11.27;4.45;;;12.80;99.90;;;;;;5071830;28;20409;-82
2022/07/14 05:25:42;;;;;;;10.80;4.00;;;12.80;99.90;;;;;;5070022;28;20037;-82
2022/07/14 05:28:08;;;;;;;12.32;3.55;;;12.90;99.90;;;;;;5059516;28;20046;-82
2022/07/14 05:30:34;;;;;;;12.68;3.80;;;12.90;99.90;;;;;;5069409;28;20036;-82
2022/07/14 05:33:00;;;;;;;8.85;3.97;;;13.00;99.90;;;;;;5072410;28;20109;-82
2022/07/14 05:35:25;;;;;;;9.27;4.13;;;13.10;99.90;;;;;;5068830;28;20032;-82
2022/07/14 05:37:51;;;;;;;17.45;3.88;;;13.10;99.90;;;;;;5086323;28;20032;-82
2022/07/14 05:40:17;;;;;;;8.82;3.65;;;13.20;99.90;;;;;;5076495;28;20040;-82
2022/07/14 05:42:42;;;;;;;9.63;3.20;;;13.30;99.90;;;;;;5063459;28;20044;-82
2022/07/14 05:45:09;;;;;;;6.68;3.22;;;13.30;99.90;;;;;;5054407;28;20043;-82
2022/07/14 05:47:35;;;;;;;13.70;3.85;;;13.30;99.90;;;;;;5081337;28;20068;-83
2022/07/14 05:50:01;;;;;;;10.00;3.75;;;13.40;99.90;;;;;;5065721;28;20086;-83
2022/07/14 05:52:30;;;;;;;7.13;2.72;;;13.40;99.90;;;;;;5058345;28;20041;-82
2022/07/14 05:55:01;;;;;;;9.02;3.33;;;13.50;99.90;;;;;;5063943;28;20040;-82
2022/07/14 05:57:27;;;;;;;9.68;3.33;;;13.60;99.90;;;;;;5052768;28;20044;-83
2022/07/14 05:59:53;;;;;;;11.27;3.08;;;13.60;99.90;;;;;;5084164;28;20071;-82
2022/07/14 06:02:18;;;;;;;10.93;3.00;;;13.70;99.90;;;;;;5062614;28;20079;-83
2022/07/14 06:04:44;;;;;;;6.93;2.67;;;13.70;99.90;;;;;;5068396;28;20547;-83
2022/07/14 06:07:10;;;;;;;5.57;2.85;;;13.80;99.90;;;;;;5055714;28;20127;-82
2022/07/14 06:09:37;;;;;;;9.98;2.95;;;13.80;99.90;;;;;;5058516;28;20040;-83
2022/07/14 06:12:05;;;;;;;7.50;2.55;;;13.90;99.90;;;;;;5063521;28;20041;-83
2022/07/14 06:14:31;;;;;;;9.25;2.83;;;14.00;99.90;;;;;;5085257;28;20037;-83
2022/07/14 06:16:57;;;;;;;8.00;2.47;;;14.10;99.90;;;;;;5060059;28;20037;-82
2022/07/14 06:19:23;;;;;;;6.43;2.30;;;14.10;99.90;;;;;;5077325;28;20036;-82
2022/07/14 06:21:49;;;;;;;10.80;3.10;;;14.20;99.90;;;;;;5054458;28;20036;-83
2022/07/14 06:24:15;;;;;;;4.63;2.17;;;14.30;99.90;;;;;;5062964;28;20063;-83
2022/07/14 06:26:41;;;;;;;5.57;2.58;;;14.30;99.90;;;;;;5059060;28;20497;-84
2022/07/14 06:29:06;;;;;;;5.18;2.53;;;14.40;99.90;;;;;;5070900;28;20053;-84
2022/07/14 06:31:34;;;;;;;6.13;2.45;;;14.50;99.90;;;;;;5060205;28;20558;-83
2022/07/14 06:34:00;;;;;;;6.10;2.15;;;14.60;99.90;;;;;;5070622;28;20071;-84
2022/07/14 06:36:26;;;;;;;6.18;2.05;;;14.70;99.90;;;;;;5067105;28;20036;-84
2022/07/14 06:38:52;;;;;;;6.57;2.10;;;14.90;99.90;;;;;;5060475;28;20066;-84
2022/07/14 06:41:21;;;;;;;6.13;2.10;;;15.10;99.90;;;;;;5090372;28;20052;-84
2022/07/14 06:43:47;;;;;;;8.23;2.05;;;15.30;99.90;;;;;;5055807;28;20064;-84
2022/07/14 06:46:16;;;;;;;9.52;2.92;;;15.40;99.90;;;;;;5056012;28;20079;-84
2022/07/14 06:48:42;;;;;;;4.30;1.95;;;15.50;99.90;;;;;;5072864;28;20390;-83
2022/07/14 06:51:08;;;;;;;6.22;2.13;;;15.60;99.90;;;;;;5062617;28;20043;-84
2022/07/14 06:53:34;;;;;;;7.00;2.22;;;15.60;99.90;;;;;;5060984;28;20234;-84
2022/07/14 06:55:59;;;;;;;5.60;1.80;;;15.60;99.90;;;;;;5056382;28;20063;-85
2022/07/14 06:58:25;;;;;;;9.43;2.10;;;15.70;99.90;;;;;;5062864;28;20040;-84
2022/07/14 07:00:51;;;;;;;9.43;1.80;;;15.80;99.90;;;;;;5057928;28;20032;-85
2022/07/14 07:03:16;;;;;;;4.28;1.48;;;15.80;99.90;;;;;;5059946;28;20032;-85
2022/07/14 07:08:28;;;;;;;5.38;1.80;;;16.00;99.90;;;;;;5074740;28;20142;-84
2022/07/14 07:10:57;;;;;;;3.83;1.50;;;16.00;99.90;;;;;;5074389;28;20040;-84
2022/07/14 07:13:26;;;;;;;5.03;2.03;;;16.00;99.90;;;;;;5062207;28;20115;-85
2022/07/14 07:15:53;;;;;;;5.72;1.88;;;16.00;99.90;;;;;;5053815;28;20037;-84
2022/07/14 07:18:18;;;;;;;6.75;1.88;;;16.00;99.90;;;;;;5073652;28;20040;-85
2022/07/14 07:20:44;;;;;;;7.65;2.20;;;16.10;99.90;;;;;;5033741;28;20370;-85
2022/07/14 07:23:10;;;;;;;6.50;2.35;;;16.20;99.90;;;;;;5064094;28;20036;-85
2022/07/14 07:25:36;;;;;;;13.50;2.38;;;16.40;99.90;;;;;;5072666;28;20040;-85
2022/07/14 07:28:03;;;;;;;8.93;2.08;;;16.60;99.90;;;;;;5070848;28;20036;-85
2022/07/14 07:30:29;;;;;;;6.22;3.13;;;16.70;99.90;;;;;;5089060;28;20060;-86
2022/07/14 07:32:56;;;;;;;9.38;2.42;;;16.90;99.90;;;;;;5062520;28;20127;-85
2022/07/14 07:35:22;;;;;;;7.88;1.98;;;17.10;99.90;;;;;;5056495;28;20165;-86
2022/07/14 07:37:48;;;;;;;7.55;2.03;;;17.20;99.90;;;;;;5080927;28;20040;-85
2022/07/14 07:40:15;;;;;;;4.22;1.67;;;17.20;99.90;;;;;;5083124;28;21175;-85
2022/07/14 07:42:41;;;;;;;6.55;1.88;;;17.10;99.90;;;;;;5084433;28;20101;-85
2022/07/14 07:45:08;;;;;;;13.27;3.08;;;17.00;99.90;;;;;;5079640;28;20768;-85
2022/07/14 07:47:35;;;;;;;5.25;1.88;;;17.00;99.90;;;;;;5081400;28;20115;-86
2022/07/14 07:50:01;;;;;;;5.55;1.48;;;17.00;99.90;;;;;;5061957;28;20032;-86
2022/07/14 07:52:27;;;;;;;4.22;1.60;;;16.80;99.90;;;;;;5087047;28;20036;-86
2022/07/14 07:54:53;;;;;;;5.75;1.73;;;16.80;99.90;;;;;;5074056;28;20040;-86
2022/07/14 07:57:19;;;;;;;4.80;1.40;;;16.90;99.90;;;;;;5070151;28;20043;-86
2022/07/14 07:59:46;;;;;;;4.65;1.83;;;17.10;99.90;;;;;;5050089;28;20120;-85
2022/07/14 08:02:12;;;;;;;3.83;1.42;;;17.30;99.90;;;;;;5049720;28;20043;-86
2022/07/14 08:04:37;;;;;;;4.72;1.50;;;17.40;99.90;;;;;;5052630;28;20036;-86
2022/07/14 08:07:03;;;;;;;3.83;1.38;;;17.60;99.90;;;;;;5061556;28;20109;-86
2022/07/14 08:09:29;;;;;;;4.55;1.85;;;17.80;99.90;;;;;;5066658;28;20127;-86
2022/07/14 08:11:55;;;;;;;5.82;1.55;;;18.00;99.90;;;;;;5055495;28;20393;-86
2022/07/14 08:17:04;;;;;;;5.28;1.95;;;18.30;99.90;;;;;;5072619;28;20068;-86
2022/07/14 08:19:32;;;;;;;4.97;1.58;;;18.60;99.90;;;;;;5043009;28;20029;-87
2022/07/14 08:21:58;;;;;;;7.28;1.58;;;18.80;99.90;;;;;;5066849;28;20058;-86
2022/07/14 08:24:24;;;;;;;2.72;1.35;;;18.80;99.90;;;;;;5061004;28;20509;-86
2022/07/14 08:26:53;;;;;;;3.97;1.45;;;18.60;99.90;;;;;;5070423;28;20050;-86
2022/07/14 08:29:20;;;;;;;5.78;1.48;;;18.50;99.90;;;;;;5085034;28;20060;-87
2022/07/14 08:31:46;;;;;;;6.03;1.70;;;18.50;99.90;;;;;;5065823;28;20106;-86
2022/07/14 08:34:12;;;;;;;3.80;1.50;;;18.50;99.90;;;;;;5066173;28;20040;-86
2022/07/14 08:36:39;;;;;;;3.72;1.20;;;18.40;99.90;;;;;;5074767;28;20359;-86
2022/07/14 08:39:05;;;;;;;5.40;1.40;;;18.50;99.90;;;;;;5071072;28;20085;-84
2022/07/14 08:41:33;;;;;;;5.05;1.58;;;18.80;99.90;;;;;;5084559;28;20083;-87
2022/07/14 08:44:00;;;;;;;4.47;1.30;;;19.00;99.90;;;;;;5065450;28;20081;-87
2022/07/14 08:46:27;;;;;;;4.50;1.65;;;19.20;99.90;;;;;;5077605;28;20042;-87
2022/07/14 08:48:53;;;;;;;7.75;2.03;;;19.40;99.90;;;;;;5064140;28;20053;-86
2022/07/14 08:51:20;;;;;;;9.05;1.52;;;19.30;99.90;;;;;;5062150;28;20463;-85
2022/07/14 08:53:46;;;;;;;5.68;1.73;;;19.00;99.90;;;;;;5089504;28;20043;-84
2022/07/14 08:56:12;;;;;;;9.75;1.92;;;18.80;99.90;;;;;;5090355;28;20039;-86
2022/07/14 08:58:43;;;;;;;19.92;2.15;;;18.80;99.90;;;;;;5086094;28;20459;-86
2022/07/14 09:01:09;;;;;;;3.00;1.27;;;19.00;99.90;;;;;;5060265;28;20039;-86
2022/07/14 09:03:34;;;;;;;3.45;1.00;;;19.30;99.90;;;;;;5085298;28;20036;-86
2022/07/14 09:06:00;;;;;;;8.70;1.38;;;19.60;99.90;;;;;;5067072;28;20459;-85
2022/07/14 09:08:26;;;;;;;7.35;1.73;;;19.60;99.90;;;;;;5061326;28;20106;-87
2022/07/14 09:10:52;;;;;;;2.42;1.00;;;19.70;99.90;;;;;;5049585;28;20085;-86
2022/07/14 09:13:22;;;;;;;4.65;1.58;;;19.90;99.90;;;;;;5091008;28;20040;-87
2022/07/14 09:15:49;;;;;;;6.18;1.23;;;20.10;99.90;;;;;;5068351;28;20158;-87
2022/07/14 09:18:28;;;;;;;12.80;2.35;;;20.40;99.90;;;;;;5083483;28;20028;-87
2022/07/14 09:20:55;;;;;;;7.55;1.40;;;20.40;99.60;;;;;;5052223;28;20024;-87
2022/07/14 09:23:35;;;;;;;5.57;1.77;;;20.50;99.60;;;;;;5074755;28;20040;-88
2022/07/14 09:26:17;;;;;;;16.23;2.40;;;20.50;99.30;;;;;;5067372;28;20039;-88
2022/07/14 09:28:46;;;;;;;5.68;1.30;;;20.40;98.90;;;;;;5076539;28;20051;-88
2022/07/14 09:31:23;;;;;;;6.80;1.90;;;20.30;99.30;;;;;;5116085;28;20138;-87
2022/07/14 09:33:50;;;;;;;5.22;1.15;;;20.20;98.80;;;;;;5084475;28;20412;-88
2022/07/14 09:36:26;;;;;;;6.88;1.95;;;20.20;99.00;;;;;;5099325;28;20038;-87
2022/07/14 09:38:52;;;;;;;3.45;1.25;;;20.20;98.80;;;;;;5081494;28;20057;-87
2022/07/14 09:41:20;;;;;;;4.03;1.55;;;20.20;98.60;;;;;;5073628;28;20101;-87
2022/07/14 09:44:17;;;;;;;1.48;0.80;;;20.20;98.60;;;;;;5084147;28;20046;-85
2022/07/14 09:46:56;;;;;;;3.75;1.08;;;20.20;97.70;;;;;;5085818;28;20050;-86
2022/07/14 09:49:30;;;;;;;3.13;1.08;;;20.20;98.50;;;;;;5065406;28;20102;-86
2022/07/14 09:52:04;;;;;;;3.83;1.20;;;20.10;98.70;;;;;;5072787;28;20047;-86
2022/07/14 09:54:45;;;;;;;4.97;1.42;;;20.00;98.80;;;;;;5062451;28;20038;-86
2022/07/14 09:57:13;;;;;;;1.98;1.08;;;19.90;98.80;;;;;;5073990;28;20036;-86
2022/07/14 09:59:51;;;;;;;3.78;1.20;;;19.80;99.00;;;;;;5080852;28;20044;-85
2022/07/14 10:02:18;;;;;;;4.00;1.02;;;19.80;99.30;;;;;;5091024;28;20126;-85
2022/07/14 10:04:45;;;;;;;3.95;1.17;;;19.80;99.20;;;;;;5067102;28;20489;-86
2022/07/14 10:07:12;;;;;;;3.95;1.30;;;19.90;98.80;;;;;;5077925;28;20035;-86
2022/07/14 10:09:47;;;;;;;5.63;1.10;;;19.90;98.80;;;;;;5091008;28;20063;-86
2022/07/14 10:12:14;;;;;;;2.78;0.90;;;19.90;98.60;;;;;;5088086;28;20126;-87
2022/07/14 10:14:41;;;;;;;2.67;1.00;;;20.00;98.70;;;;;;5065990;28;20043;-86
2022/07/14 10:17:08;;;;;;;3.30;1.42;;;20.00;98.70;;;;;;5080687;28;20085;-87
2022/07/14 10:19:35;;;;;;;2.58;1.15;;;20.10;98.70;;;;;;5084729;28;20052;-87
2022/07/14 10:22:01;;;;;;;3.17;0.95;;;20.00;98.60;;;;;;5066158;28;20057;-87
2022/07/14 10:24:29;;;;;;;3.25;1.05;;;20.00;98.70;;;;;;5075779;28;20127;-85
2022/07/14 10:26:56;;;;;;;3.00;1.05;;;20.00;98.40;;;;;;5068466;28;20048;-86
2022/07/14 10:29:22;;;;;;;1.75;0.73;;;19.90;98.40;;;;;;5077202;28;20142;-85
2022/07/14 10:32:02;;;;;;;4.57;1.25;;;19.80;98.50;;;;;;5042855;28;20465;-87
2022/07/14 10:34:46;;;;;;;3.22;1.27;;;19.80;97.90;;;;;;5068363;28;20040;-86
2022/07/14 10:37:32;;;;;;;3.22;0.90;;;19.70;98.50;;;;;;5088685;28;20431;-87
2022/07/14 10:40:38;;;;;;;4.15;0.95;;;19.70;98.40;;;;;;5087073;28;20040;-86
2022/07/14 10:43:15;;;;;;;5.00;1.00;;;19.70;98.20;;;;;;5044938;28;20100;-86
2022/07/14 10:45:52;;;;;;;2.78;1.08;;;19.60;98.80;;;;;;5065283;28;20046;-87
2022/07/14 10:48:31;;;;;;;3.40;0.93;;;19.70;99.10;;;;;;5106080;28;20043;-87
2022/07/14 10:51:16;;;;;;;2.88;0.93;;;19.80;99.10;;;;;;5089787;28;20492;-87
2022/07/14 10:54:09;;;;;;;2.58;1.30;;;19.80;98.80;;;;;;5064255;28;20539;-87
2022/07/14 10:56:36;;;;;;;4.10;1.10;;;19.90;98.10;;;;;;5063729;28;20040;-88
2022/07/14 10:59:27;;;;;;;4.70;1.30;;;20.00;98.60;;;;;;5092400;28;20088;-88
2022/07/14 11:02:13;;;;;;;3.42;1.30;;;19.90;98.00;;;;;;5084808;28;20101;-87
2022/07/14 11:05:12;;;;;;;5.70;1.65;;;19.90;98.20;;;;;;5083964;28;20047;-87
2022/07/14 11:08:07;;;;;;;4.65;1.40;;;20.00;98.50;;;;;;5053190;28;20557;-87
2022/07/14 11:10:52;;;;;;;1.85;0.80;;;20.00;98.30;;;;;;5082252;28;20036;-89
2022/07/14 11:13:18;;;;;;;4.50;1.70;;;20.10;98.40;;;;;;5070887;28;20050;-87
2022/07/14 11:16:03;;;;;;;4.45;1.27;;;20.10;98.10;;;;;;5057629;28;20032;-87
2022/07/14 11:18:37;;;;;;;3.00;1.08;;;20.10;97.80;;;;;;5088235;28;20047;-87
2022/07/14 11:21:17;;;;;;;7.55;1.33;;;20.10;97.70;;;;;;5076704;28;20036;-87
2022/07/14 11:23:46;;;;;;;2.85;1.05;;;20.10;97.80;;;;;;5088917;28;20397;-87
2022/07/14 11:26:31;;;;;;;3.92;1.23;;;20.00;98.20;;;;;;5087457;28;20431;-87
2022/07/14 11:28:58;;;;;;;2.10;1.02;;;20.00;98.00;;;;;;5093370;28;20104;-87
2022/07/14 11:31:24;;;;;;;2.95;1.02;;;20.00;98.20;;;;;;5076528;28;20032;-86
2022/07/14 11:36:59;;;;;;;2.50;0.93;;;19.90;98.00;;;;;;5082283;28;20047;-86
2022/07/14 11:39:31;;;;;;;3.30;1.35;;;19.90;98.20;;;;;;5090558;28;20028;-87
2022/07/14 11:42:14;;;;;;;6.07;1.13;;;19.90;98.20;;;;;;5072573;28;20089;-87
2022/07/14 11:44:40;;;;;;;3.08;1.20;;;20.00;98.70;;;;;;5087566;28;20043;-86
2022/07/14 11:47:08;;;;;;;2.55;1.00;;;20.20;98.70;;;;;;5090477;28;20395;-86
2022/07/14 11:49:36;;;;;;;4.80;1.25;;;20.20;98.20;;;;;;5066082;28;20067;-86
2022/07/14 11:52:04;;;;;;;4.38;1.20;;;20.20;98.20;;;;;;5065660;28;20032;-86
2022/07/14 11:54:30;;;;;;;1.67;0.80;;;20.20;98.20;;;;;;5083558;28;20036;-86
2022/07/14 11:57:08;;;;;;;2.20;1.00;;;20.30;98.30;;;;;;5074041;28;20027;-86
2022/07/14 11:59:36;;;;;;;4.95;1.20;;;20.30;98.10;;;;;;5077164;28;20096;-86
2022/07/14 12:02:10;;;;;;;3.65;1.02;;;20.20;97.90;;;;;;5062186;28;20032;-86
2022/07/14 12:04:53;;;;;;;11.32;1.58;;;20.10;97.90;;;;;;5088018;28;20124;-85
2022/07/14 12:07:22;;;;;;;5.15;1.40;;;20.00;98.00;;;;;;5067482;28;20051;-86
2022/07/14 12:09:49;;;;;;;2.03;0.95;;;20.00;98.50;;;;;;5091130;28;20037;-87
2022/07/14 12:12:16;;;;;;;2.28;0.85;;;19.90;98.60;;;;;;5089805;28;20042;-86
2022/07/14 12:14:53;;;;;;;3.22;1.13;;;19.80;98.70;;;;;;5092113;28;20039;-86
2022/07/14 12:17:21;;;;;;;6.18;1.55;;;19.80;98.40;;;;;;5088297;28;20115;-86
2022/07/14 12:19:48;;;;;;;4.20;1.38;;;19.80;98.80;;;;;;5075688;28;20039;-86
2022/07/14 12:22:15;;;;;;;3.22;1.30;;;19.70;99.10;;;;;;5064046;28;20493;-86
2022/07/14 12:24:41;;;;;;;3.70;1.27;;;19.80;99.10;;;;;;5089467;28;20581;-86
2022/07/14 12:27:09;;;;;;;2.58;0.95;;;20.20;99.10;;;;;;5071149;28;20039;-87
2022/07/14 12:29:44;;;;;;;3.95;1.13;;;20.60;98.80;;;;;;5081765;28;20478;-87
2022/07/14 12:32:10;;;;;;;5.22;1.13;;;20.80;98.70;;;;;;5105060;28;20126;-85
2022/07/14 12:34:38;;;;;;;4.15;1.23;;;21.00;98.40;;;;;;5052769;28;20073;-85
2022/07/14 12:37:04;;;;;;;2.92;1.00;;;21.20;98.10;;;;;;5056952;28;20032;-85
2022/07/14 12:39:31;;;;;;;1.02;0.80;;;21.30;98.10;;;;;;5067353;28;20124;-85
2022/07/14 12:42:03;;;;;;;2.72;1.02;;;21.20;97.70;;;;;;5047025;28;20047;-85
2022/07/14 12:44:30;;;;;;;4.90;1.33;;;21.10;97.40;;;;;;5077562;28;20043;-85
2022/07/14 12:47:10;;;;;;;3.83;1.30;;;21.00;97.60;;;;;;5083637;28;20035;-87
2022/07/14 12:49:47;;;;;;;5.20;1.15;;;20.90;97.70;;;;;;5084017;28;20109;-86
2022/07/14 12:52:14;;;;;;;2.85;1.55;;;20.80;97.80;;;;;;5081077;28;20488;-86
2022/07/14 12:54:43;;;;;;;4.63;1.17;;;20.80;97.90;;;;;;5069038;28;20031;-85
2022/07/14 12:57:23;;;;;;;3.88;1.35;;;20.70;97.90;;;;;;5070882;28;20032;-85
2022/07/14 12:59:49;;;;;;;4.55;1.60;;;20.70;97.80;;;;;;5087393;28;20047;-86
2022/07/14 13:02:24;;;;;;;7.82;2.17;;;20.60;97.90;;;;;;5087606;28;20556;-86
2022/07/14 13:04:58;;;;;;;3.05;1.30;;;20.60;98.20;;;;;;5085403;28;20028;-85